createdAt,value
2023-04-26T03:01:15.235Z,59.99
2023-04-26T03:03:44.446Z,59.83
2023-04-26T03:06:13.541Z,59.85
2023-04-26T03:08:42.500Z,59.81
2023-04-26T03:11:12.155Z,59.97
2023-04-26T03:13:41.030Z,59.97
2023-04-26T03:16:11.417Z,59.89
2023-04-26T03:18:40.490Z,60.19
2023-04-26T03:21:09.776Z,60.13
2023-04-26T03:23:39.171Z,60.09
2023-04-26T03:26:08.236Z,60.14
2023-04-26T03:28:36.565Z,60.15
2023-04-26T03:31:05.585Z,60.20
2023-04-26T03:33:34.158Z,60.29
2023-04-26T03:36:04.042Z,60.26
2023-04-26T03:38:33.601Z,60.36
2023-04-26T03:41:02.549Z,60.35
2023-04-26T03:43:33.530Z,60.20
2023-04-26T03:46:02.898Z,60.27
2023-04-26T03:48:31.303Z,60.39
2023-04-26T03:50:59.383Z,60.45
2023-04-26T03:53:30.296Z,60.28
2023-04-26T03:55:58.698Z,60.42
2023-04-26T03:58:27.768Z,60.31
2023-04-26T04:00:59.406Z,60.36
2023-04-26T04:03:30.734Z,60.55
2023-04-26T04:05:59.569Z,60.39
2023-04-26T04:08:28.325Z,60.49
2023-04-26T04:10:57.418Z,60.45
2023-04-26T04:13:27.206Z,60.39
2023-04-26T04:15:56.103Z,60.70
2023-04-26T04:18:25.494Z,60.66
2023-04-26T04:20:55.127Z,60.51
2023-04-26T04:23:24.495Z,60.24
2023-04-26T04:25:53.790Z,60.28
2023-04-26T04:28:24.068Z,60.45
2023-04-26T04:30:52.727Z,60.49
2023-04-26T04:33:21.085Z,60.34
2023-04-26T04:35:49.708Z,60.63
2023-04-26T04:38:18.566Z,60.68
2023-04-26T04:40:51.278Z,60.64
2023-04-26T04:43:22.030Z,60.68
2023-04-26T04:45:52.572Z,60.29
2023-04-26T04:48:21.852Z,60.22
2023-04-26T04:50:51.480Z,59.98
2023-04-26T04:53:20.642Z,59.50
2023-04-26T04:55:49.908Z,59.53
2023-04-26T04:58:19.525Z,59.10
2023-04-26T05:00:48.812Z,59.05
2023-04-26T05:03:23.553Z,58.86
2023-04-26T05:05:53.376Z,58.99
2023-04-26T05:08:22.119Z,58.94
2023-04-26T05:10:51.914Z,58.53
2023-04-26T05:13:20.742Z,58.17
2023-04-26T05:15:49.446Z,58.15
2023-04-26T05:18:18.305Z,58.04
2023-04-26T05:20:46.769Z,57.94
2023-04-26T05:23:15.155Z,57.93
2023-04-26T05:25:44.275Z,57.94
2023-04-26T05:28:35.569Z,57.44
2023-04-26T05:31:19.531Z,56.77
2023-04-26T05:34:01.183Z,56.23
2023-04-26T05:36:39.564Z,55.58
2023-04-26T05:39:09.701Z,55.50
2023-04-26T05:41:38.284Z,54.94
2023-04-26T05:44:07.642Z,55.56
2023-04-26T05:46:36.560Z,56.09
2023-04-26T05:49:05.581Z,55.64
2023-04-26T05:51:35.489Z,56.10
2023-04-26T05:54:04.149Z,54.83
2023-04-26T05:56:32.450Z,52.96
2023-04-26T05:59:00.839Z,52.68
2023-04-26T06:01:29.839Z,52.17
2023-04-26T06:04:00.502Z,51.78
2023-04-26T06:06:34.383Z,52.99
2023-04-26T06:09:02.763Z,54.03
2023-04-26T06:11:32.019Z,54.56
2023-04-26T06:14:01.799Z,54.62
2023-04-26T06:16:32.168Z,54.81
2023-04-26T06:19:02.100Z,54.92
2023-04-26T06:21:31.793Z,55.29
2023-04-26T06:24:00.864Z,55.44
2023-04-26T06:26:32.113Z,55.34
2023-04-26T06:29:01.034Z,55.55
2023-04-26T06:31:30.161Z,55.56
2023-04-26T06:34:03.448Z,55.45
2023-04-26T06:36:33.959Z,55.37
2023-04-26T06:39:02.507Z,55.26
2023-04-26T06:41:31.824Z,55.24
2023-04-26T06:44:01.090Z,55.20
2023-04-26T06:46:32.939Z,55.12
2023-04-26T06:49:02.917Z,55.10
2023-04-26T06:51:32.029Z,54.97
2023-04-26T06:54:01.668Z,55.10
2023-04-26T06:56:30.725Z,55.03
2023-04-26T06:59:03.987Z,54.92
2023-04-26T07:01:36.131Z,54.80
2023-04-26T07:04:10.872Z,54.78
2023-04-26T07:06:40.367Z,54.67
2023-04-26T07:09:08.982Z,54.66
2023-04-26T07:11:37.635Z,54.45
2023-04-26T07:14:06.133Z,54.44
2023-04-26T07:16:35.122Z,54.52
2023-04-26T07:19:03.668Z,54.48
2023-04-26T07:21:33.565Z,54.64
2023-04-26T07:24:02.947Z,54.09
2023-04-26T07:26:32.055Z,54.04
2023-04-26T07:29:01.679Z,54.19
2023-04-26T07:31:31.580Z,54.13
2023-04-26T07:34:00.259Z,53.63
2023-04-26T07:36:29.273Z,53.50
2023-04-26T07:38:57.848Z,53.56
2023-04-26T07:41:27.043Z,53.52
2023-04-26T07:43:56.054Z,53.65
2023-04-26T07:46:24.475Z,53.50
2023-04-26T07:48:54.040Z,53.38
2023-04-26T07:51:22.638Z,53.31
2023-04-26T07:53:51.464Z,53.65
2023-04-26T07:56:21.308Z,53.55
2023-04-26T07:58:49.925Z,53.36
2023-04-26T08:01:18.462Z,53.27
2023-04-26T08:03:47.960Z,53.13
2023-04-26T08:06:17.513Z,52.95
2023-04-26T08:08:49.453Z,53.11
2023-04-26T08:11:18.563Z,53.03
2023-04-26T08:13:47.808Z,52.64
2023-04-26T08:16:16.156Z,52.49
2023-04-26T08:18:46.829Z,52.50
2023-04-26T08:21:15.313Z,52.54
2023-04-26T08:23:44.155Z,52.49
2023-04-26T08:26:13.651Z,52.36
2023-04-26T08:28:42.431Z,52.53
2023-04-26T08:31:10.787Z,52.79
2023-04-26T08:33:39.887Z,52.20
2023-04-26T08:36:09.540Z,52.01
2023-04-26T08:38:38.564Z,52.01
2023-04-26T08:41:08.617Z,52.17
2023-04-26T08:43:38.555Z,52.19
2023-04-26T08:46:09.024Z,51.93
2023-04-26T08:48:37.665Z,51.32
2023-04-26T08:51:08.094Z,51.17
2023-04-26T08:53:38.148Z,51.06
2023-04-26T08:56:08.675Z,50.84
2023-04-26T08:58:38.122Z,51.00
2023-04-26T09:01:07.401Z,51.19
2023-04-26T09:03:35.933Z,51.15
2023-04-26T09:06:06.793Z,51.04
2023-04-26T09:08:36.828Z,51.25
2023-04-26T09:11:05.008Z,51.10
2023-04-26T09:13:33.275Z,51.20
2023-04-26T09:16:04.136Z,51.31
2023-04-26T09:18:34.261Z,51.10
2023-04-26T09:21:07.279Z,51.22
2023-04-26T09:23:35.996Z,51.17
2023-04-26T09:26:21.382Z,51.06
2023-04-26T09:28:51.311Z,51.03
2023-04-26T09:31:39.388Z,50.94
2023-04-26T09:34:09.010Z,51.06
2023-04-26T09:37:07.139Z,50.88
2023-04-26T09:39:38.022Z,50.35
2023-04-26T09:42:08.454Z,50.21
2023-04-26T09:44:37.150Z,50.28
2023-04-26T09:47:10.491Z,50.23
2023-04-26T09:49:50.734Z,50.29
2023-04-26T09:52:19.399Z,50.28
2023-04-26T09:54:49.101Z,50.17
2023-04-26T09:57:18.394Z,50.22
2023-04-26T09:59:47.837Z,50.47
2023-04-26T10:02:16.772Z,50.35
2023-04-26T10:04:47.237Z,50.45
2023-04-26T10:07:17.188Z,50.48
2023-04-26T10:09:47.429Z,50.76
2023-04-26T10:12:17.240Z,50.55
2023-04-26T10:14:47.232Z,50.51
2023-04-26T10:17:16.906Z,50.33
2023-04-26T10:19:48.418Z,50.11
2023-04-26T10:22:22.401Z,50.01
2023-04-26T10:24:52.273Z,50.01
2023-04-26T10:27:40.226Z,50.03
2023-04-26T10:30:09.746Z,50.17
2023-04-26T10:32:53.880Z,49.77
2023-04-26T10:35:23.211Z,49.39
2023-04-26T10:38:17.972Z,49.62
2023-04-26T10:40:47.167Z,49.41
2023-04-26T10:43:20.149Z,49.33
2023-04-26T10:45:50.200Z,49.49
2023-04-26T10:48:27.706Z,49.54
2023-04-26T10:51:02.685Z,49.46
2023-04-26T10:53:46.838Z,49.45
2023-04-26T10:56:24.171Z,49.59
2023-04-26T10:59:22.593Z,49.52
2023-04-26T11:02:03.469Z,49.15
2023-04-26T11:04:51.338Z,49.05
2023-04-26T11:07:39.479Z,48.87
2023-04-26T11:10:11.000Z,48.88
2023-04-26T11:12:42.785Z,49.08
2023-04-26T11:15:12.964Z,49.32
2023-04-26T11:17:42.061Z,49.27
2023-04-26T11:20:16.765Z,49.13
2023-04-26T11:22:46.023Z,49.06
2023-04-26T11:25:15.333Z,48.86
2023-04-26T11:27:44.243Z,48.99
2023-04-26T11:30:13.330Z,49.04
2023-04-26T11:32:42.397Z,49.14
2023-04-26T11:35:11.162Z,49.24
2023-04-26T11:37:40.500Z,49.38
2023-04-26T11:40:12.262Z,49.52
2023-04-26T11:42:42.594Z,49.49
2023-04-26T11:45:12.607Z,49.64
2023-04-26T11:47:42.199Z,49.36
2023-04-26T11:50:11.065Z,49.40
2023-04-26T11:52:40.575Z,49.42
2023-04-26T11:55:11.206Z,49.40
2023-04-26T11:57:40.390Z,49.49
2023-04-26T12:00:13.073Z,49.48
2023-04-26T12:02:46.720Z,49.31
2023-04-26T12:05:42.262Z,49.39
2023-04-26T12:08:12.207Z,49.22
2023-04-26T12:10:41.032Z,49.22
2023-04-26T12:13:14.721Z,49.36
2023-04-26T12:15:44.193Z,49.18
2023-04-26T12:18:13.774Z,49.01
2023-04-26T12:20:43.492Z,48.86
2023-04-26T12:23:15.944Z,48.95
2023-04-26T12:25:56.291Z,48.82
2023-04-26T12:28:25.652Z,49.03
2023-04-26T12:30:54.863Z,49.05
2023-04-26T12:33:26.043Z,48.75
2023-04-26T12:35:55.564Z,48.66
2023-04-26T12:38:25.164Z,48.49
2023-04-26T12:40:53.942Z,48.53
2023-04-26T12:43:24.878Z,48.59
2023-04-26T12:45:56.947Z,48.40
2023-04-26T12:48:26.621Z,48.48
2023-04-26T12:50:55.552Z,48.58
2023-04-26T12:53:24.420Z,48.22
2023-04-26T12:55:54.303Z,48.14
2023-04-26T12:58:23.361Z,48.31
2023-04-26T13:00:52.379Z,48.21
2023-04-26T13:03:21.321Z,48.00
2023-04-26T13:05:50.443Z,48.14
2023-04-26T13:08:19.437Z,48.13
2023-04-26T13:10:48.488Z,48.43
2023-04-26T13:13:18.348Z,48.07
2023-04-26T13:15:50.611Z,47.57
2023-04-26T13:18:19.675Z,47.44
2023-04-26T13:20:48.669Z,47.60
2023-04-26T13:23:18.407Z,47.36
2023-04-26T13:25:47.379Z,47.56
2023-04-26T13:28:16.517Z,47.70
2023-04-26T13:30:45.924Z,47.78
2023-04-26T13:33:15.140Z,47.71
2023-04-26T13:35:43.745Z,47.51
2023-04-26T13:38:13.248Z,47.73
2023-04-26T13:40:42.666Z,47.75
2023-04-26T13:43:11.563Z,47.70
2023-04-26T13:45:40.722Z,47.77
2023-04-26T13:48:09.960Z,47.43
2023-04-26T13:50:38.336Z,47.44
2023-04-26T13:53:06.865Z,47.41
2023-04-26T13:55:35.899Z,47.63
2023-04-26T13:58:04.991Z,47.38
2023-04-26T14:00:34.702Z,47.45
2023-04-26T14:03:04.743Z,47.50
2023-04-26T14:05:33.297Z,47.46
2023-04-26T14:08:03.194Z,47.35
2023-04-26T14:10:32.903Z,47.29
2023-04-26T14:13:01.482Z,47.39
2023-04-26T14:15:30.043Z,47.46
2023-04-26T14:17:59.246Z,47.48
2023-04-26T14:20:27.562Z,47.27
2023-04-26T14:22:56.346Z,47.36
2023-04-26T14:25:24.630Z,47.30
2023-04-26T14:27:54.945Z,46.96
2023-04-26T14:30:25.210Z,46.71
2023-04-26T14:32:54.141Z,46.52
2023-04-26T14:35:22.496Z,46.54
2023-04-26T14:37:51.567Z,46.33
2023-04-26T14:40:20.512Z,46.41
2023-04-26T14:42:49.031Z,46.45
2023-04-26T14:45:17.529Z,46.30
2023-04-26T14:47:46.683Z,46.42
2023-04-26T14:50:15.617Z,46.52
2023-04-26T14:52:44.903Z,46.56
2023-04-26T14:55:19.612Z,46.61
2023-04-26T14:57:48.318Z,46.64
2023-04-26T15:00:17.933Z,46.49
2023-04-26T15:02:47.716Z,46.29
2023-04-26T15:05:19.974Z,46.54
2023-04-26T15:07:51.555Z,46.43
2023-04-26T15:10:20.649Z,46.54
2023-04-26T15:12:49.160Z,46.56
2023-04-26T15:15:18.644Z,46.44
2023-04-26T15:17:47.619Z,46.21
2023-04-26T15:20:16.250Z,46.14
2023-04-26T15:22:46.208Z,46.32
2023-04-26T15:25:14.832Z,46.26
2023-04-26T15:27:43.492Z,46.22
2023-04-26T15:30:13.201Z,46.25
2023-04-26T15:32:41.696Z,46.32
2023-04-26T15:35:13.638Z,46.23
2023-04-26T15:37:42.654Z,46.29
2023-04-26T15:40:12.606Z,46.22
2023-04-26T15:42:41.716Z,46.23
2023-04-26T15:45:11.031Z,45.89
2023-04-26T15:47:40.257Z,46.07
2023-04-26T15:50:10.653Z,45.90
2023-04-26T15:52:41.236Z,45.81
2023-04-26T15:55:10.673Z,45.89
2023-04-26T15:57:41.827Z,45.80
2023-04-26T16:00:13.833Z,45.76
2023-04-26T16:02:46.336Z,45.89
2023-04-26T16:05:15.521Z,46.17
2023-04-26T16:07:44.626Z,45.73
2023-04-26T16:10:12.885Z,45.74
2023-04-26T16:12:42.673Z,45.80
2023-04-26T16:15:11.881Z,45.79
2023-04-26T16:17:40.621Z,45.58
2023-04-26T16:20:10.779Z,45.69
2023-04-26T16:22:39.432Z,45.62
2023-04-26T16:25:08.844Z,45.61
2023-04-26T16:27:37.919Z,45.78
2023-04-26T16:30:06.684Z,45.80
2023-04-26T16:32:35.186Z,45.79
2023-04-26T16:35:03.441Z,45.62
2023-04-26T16:37:31.691Z,45.65
2023-04-26T16:40:00.914Z,45.52
2023-04-26T16:42:30.581Z,45.49
2023-04-26T16:44:59.883Z,45.17
2023-04-26T16:47:29.045Z,45.39
2023-04-26T16:49:57.974Z,45.65
2023-04-26T16:52:26.887Z,45.47
2023-04-26T16:54:56.192Z,45.67
2023-04-26T16:57:25.183Z,45.42
2023-04-26T16:59:53.460Z,45.19
2023-04-26T17:02:21.890Z,45.27
2023-04-26T17:04:51.319Z,45.29
2023-04-26T17:07:19.897Z,45.17
2023-04-26T17:09:48.574Z,45.51
2023-04-26T17:12:16.890Z,45.37
2023-04-26T17:14:45.262Z,45.38
2023-04-26T17:17:14.372Z,45.43
2023-04-26T17:19:42.994Z,45.34
2023-04-26T17:22:11.803Z,45.42
2023-04-26T17:24:40.345Z,45.57
2023-04-26T17:27:09.042Z,45.48
2023-04-26T17:29:37.389Z,45.34
2023-04-26T17:32:06.029Z,45.50
2023-04-26T17:34:34.398Z,45.58
2023-04-26T17:37:03.417Z,45.54
2023-04-26T17:39:31.920Z,45.78
2023-04-26T17:42:00.376Z,45.73
2023-04-26T17:44:28.911Z,45.68
2023-04-26T17:46:57.581Z,45.77
2023-04-26T17:49:26.750Z,45.72
2023-04-26T17:51:55.093Z,46.01
2023-04-26T17:54:24.037Z,45.95
2023-04-26T17:56:53.018Z,45.71
2023-04-26T17:59:22.422Z,45.84
2023-04-26T18:01:51.368Z,45.70
2023-04-26T18:04:20.283Z,45.96
2023-04-26T18:06:49.705Z,46.06
2023-04-26T18:09:18.609Z,45.83
2023-04-26T18:11:48.629Z,45.78
2023-04-26T18:14:17.508Z,45.91
2023-04-26T18:16:47.015Z,45.78
2023-04-26T18:19:16.412Z,46.37
2023-04-26T18:21:45.139Z,46.05
2023-04-26T18:24:13.373Z,45.90
2023-04-26T18:26:41.917Z,46.11
2023-04-26T18:29:11.069Z,46.41
2023-04-26T18:31:40.193Z,46.34
2023-04-26T18:34:11.013Z,46.21
2023-04-26T18:36:40.086Z,46.10
2023-04-26T18:39:09.003Z,46.14
2023-04-26T18:41:38.108Z,46.53
2023-04-26T18:44:13.257Z,46.40
2023-04-26T18:46:43.313Z,46.22
2023-04-26T18:49:12.045Z,46.26
2023-04-26T18:51:40.956Z,46.26
2023-04-26T18:54:10.040Z,45.98
2023-04-26T18:56:38.600Z,46.21
2023-04-26T18:59:07.793Z,46.21
2023-04-26T19:01:36.868Z,45.98
2023-04-26T19:04:06.401Z,46.05
2023-04-26T19:06:35.032Z,46.15
2023-04-26T19:09:06.985Z,46.16
2023-04-26T19:11:37.984Z,45.96
2023-04-26T19:14:06.437Z,46.16
2023-04-26T19:16:35.683Z,45.83
2023-04-26T19:19:04.725Z,45.97
2023-04-26T19:21:33.446Z,46.15
2023-04-26T19:24:01.768Z,46.08
2023-04-26T19:26:30.869Z,46.28
2023-04-26T19:28:59.336Z,46.23
2023-04-26T19:31:28.069Z,45.96
2023-04-26T19:33:56.578Z,46.34
2023-04-26T19:36:25.718Z,46.50
2023-04-26T19:38:54.287Z,46.56
2023-04-26T19:41:24.073Z,46.48
2023-04-26T19:43:52.728Z,46.51
2023-04-26T19:46:20.878Z,46.59
2023-04-26T19:48:49.124Z,46.49
2023-04-26T19:51:18.062Z,46.50
2023-04-26T19:53:46.173Z,46.45
2023-04-26T19:56:14.584Z,46.53
2023-04-26T19:58:43.482Z,46.68
2023-04-26T20:01:11.749Z,46.88
2023-04-26T20:03:41.607Z,46.88
2023-04-26T20:06:14.062Z,46.72
2023-04-26T20:08:43.002Z,46.83
2023-04-26T20:11:15.480Z,46.87
2023-04-26T20:13:44.828Z,46.74
2023-04-26T20:16:14.649Z,46.81
2023-04-26T20:18:43.507Z,46.96
2023-04-26T20:21:11.856Z,46.90
2023-04-26T20:23:40.265Z,46.96
2023-04-26T20:26:09.165Z,47.06
2023-04-26T20:28:39.992Z,47.04
2023-04-26T20:31:10.466Z,47.12
2023-04-26T20:33:39.975Z,47.03
2023-04-26T20:36:08.981Z,47.05
2023-04-26T20:38:37.360Z,47.06
2023-04-26T20:41:05.784Z,47.18
2023-04-26T20:43:34.060Z,47.23
2023-04-26T20:46:02.755Z,47.32
2023-04-26T20:48:32.036Z,47.36
2023-04-26T20:51:02.359Z,47.22
2023-04-26T20:53:31.435Z,47.29
2023-04-26T20:55:59.773Z,47.43
2023-04-26T20:58:29.933Z,47.47
2023-04-26T21:00:59.691Z,47.65
2023-04-26T21:03:28.166Z,47.56
2023-04-26T21:05:56.751Z,47.74
2023-04-26T21:08:26.101Z,47.37
2023-04-26T21:10:55.278Z,47.73
2023-04-26T21:13:23.988Z,47.73
2023-04-26T21:15:53.068Z,47.67
2023-04-26T21:18:22.628Z,47.66
2023-04-26T21:20:51.748Z,47.83
2023-04-26T21:23:21.355Z,47.78
2023-04-26T21:25:50.078Z,47.86
2023-04-26T21:28:19.701Z,48.02
2023-04-26T21:30:48.961Z,47.87
2023-04-26T21:33:17.714Z,47.91
2023-04-26T21:35:46.300Z,47.98
2023-04-26T21:38:15.855Z,47.97
2023-04-26T21:40:44.711Z,48.06
2023-04-26T21:43:16.148Z,48.28
2023-04-26T21:45:45.165Z,48.38
2023-04-26T21:48:14.010Z,48.31
2023-04-26T21:50:42.914Z,48.29
2023-04-26T21:53:11.103Z,48.26
2023-04-26T21:55:40.216Z,48.18
2023-04-26T21:58:08.893Z,48.27
2023-04-26T22:00:37.831Z,48.41
2023-04-26T22:03:06.377Z,48.17
2023-04-26T22:05:35.551Z,48.30
2023-04-26T22:08:04.543Z,48.34
2023-04-26T22:10:33.355Z,48.43
2023-04-26T22:13:04.581Z,48.37
2023-04-26T22:15:33.088Z,48.65
2023-04-26T22:18:02.208Z,48.79
2023-04-26T22:20:31.226Z,48.53
2023-04-26T22:23:00.409Z,48.55
2023-04-26T22:25:29.430Z,48.68
2023-04-26T22:27:58.456Z,48.54
2023-04-26T22:30:27.834Z,48.35
2023-04-26T22:32:58.991Z,48.67
2023-04-26T22:35:28.674Z,48.69
2023-04-26T22:37:57.767Z,48.83
2023-04-26T22:40:26.682Z,48.84
2023-04-26T22:42:55.677Z,48.73
2023-04-26T22:45:24.575Z,49.14
2023-04-26T22:47:53.514Z,48.84
2023-04-26T22:50:22.614Z,49.10
2023-04-26T22:52:51.357Z,49.02
2023-04-26T22:55:20.490Z,49.10
2023-04-26T22:57:49.486Z,49.26
2023-04-26T23:00:18.716Z,49.16
2023-04-26T23:02:47.115Z,49.32
2023-04-26T23:05:15.402Z,49.39
2023-04-26T23:07:44.257Z,49.24
2023-04-26T23:10:13.612Z,49.47
2023-04-26T23:12:42.618Z,49.21
2023-04-26T23:15:13.076Z,49.37
2023-04-26T23:17:42.264Z,49.20
2023-04-26T23:20:14.314Z,49.42
2023-04-26T23:22:43.326Z,49.41
2023-04-26T23:25:12.366Z,49.79
2023-04-26T23:27:41.406Z,49.55
2023-04-26T23:30:10.679Z,49.80
2023-04-26T23:32:39.402Z,49.62
2023-04-26T23:35:08.259Z,50.00
2023-04-26T23:37:37.608Z,49.99
2023-04-26T23:40:07.403Z,50.09
2023-04-26T23:42:37.441Z,50.12
2023-04-26T23:45:08.154Z,50.21
2023-04-26T23:47:37.240Z,49.93
2023-04-26T23:50:06.212Z,49.97
2023-04-26T23:52:35.060Z,50.07
2023-04-26T23:55:03.585Z,50.03
2023-04-26T23:57:32.787Z,50.41
